グラン・カナリア島 の空港の天気 - METARとTAF

グラン・カナリア空港 ( GCLP / LPA ) - グラン・カナリア島
飛行場実況気象(Metar)
観測時間07/15 13:00 WEST (07/15 12:00 UTC)
風向・風速北 14m/s
視程10km以上
天気現象
少しの雲 雲底高度 760m
気温27℃
湿度58%
気圧1011hPa
METARGCLP 151200Z 01027KT 9999 FEW025 27/18 Q1011 NOSIG
過去の天気等 Google飛行場航空写真 Wunderground天気予報

過去48時間のMETAR

飛行場予報(TAF)
発表時間: 7/15 09:00 WEST (7/15 08:00 UTC)
予報対象時間: 15日10時 WEST ~ 16日10時 WEST
風向・風速北 12m/s
視程10km以上
少しの雲 雲底高度 610m
15日10時 WEST ~ 15日16時 WEST に 確率 30% で一時的に
風向・風速北 12m/s 瞬間風速 17m/s
TAF GCLP 150800Z 1509/1609 01024KT 9999 FEW020 TX28/1515Z TN22/1606Z
PROB30 TEMPO 1509/1515 36024G34KT